sensor_id;sensor_type;location;lat;lon;timestamp;P1;durP1;ratioP1;P2;durP2;ratioP2
30036;SDS011;36325;51.512;-0.382;2022-09-21T00:01:17;14.35;;;6.60;;
30036;SDS011;36325;51.512;-0.382;2022-09-21T00:03:46;13.77;;;6.78;;
30036;SDS011;36325;51.512;-0.382;2022-09-21T00:06:18;11.85;;;6.63;;
30036;SDS011;36325;51.512;-0.382;2022-09-21T00:08:47;15.68;;;6.35;;
30036;SDS011;36325;51.512;-0.382;2022-09-21T00:11:27;10.70;;;5.88;;
30036;SDS011;36325;51.512;-0.382;2022-09-21T00:13:58;24.50;;;6.30;;
30036;SDS011;36325;51.512;-0.382;2022-09-21T00:16:30;15.90;;;6.38;;
30036;SDS011;36325;51.512;-0.382;2022-09-21T00:18:58;11.30;;;6.18;;
30036;SDS011;36325;51.512;-0.382;2022-09-21T00:21:26;12.38;;;5.30;;
30036;SDS011;36325;51.512;-0.382;2022-09-21T00:23:53;12.75;;;6.72;;
30036;SDS011;36325;51.512;-0.382;2022-09-21T00:26:22;20.73;;;7.13;;
30036;SDS011;36325;51.512;-0.382;2022-09-21T00:28:58;15.15;;;6.78;;
30036;SDS011;36325;51.512;-0.382;2022-09-21T00:31:28;19.50;;;7.45;;
30036;SDS011;36325;51.512;-0.382;2022-09-21T00:33:57;36.65;;;8.98;;
30036;SDS011;36325;51.512;-0.382;2022-09-21T00:36:26;25.50;;;8.30;;
30036;SDS011;36325;51.512;-0.382;2022-09-21T00:38:55;23.23;;;7.18;;
30036;SDS011;36325;51.512;-0.382;2022-09-21T00:41:24;19.95;;;7.60;;
30036;SDS011;36325;51.512;-0.382;2022-09-21T00:44:15;15.50;;;7.13;;
30036;SDS011;36325;51.512;-0.382;2022-09-21T00:46:55;13.50;;;6.03;;
30036;SDS011;36325;51.512;-0.382;2022-09-21T00:49:27;25.33;;;6.85;;
30036;SDS011;36325;51.512;-0.382;2022-09-21T00:51:56;14.73;;;6.55;;
30036;SDS011;36325;51.512;-0.382;2022-09-21T00:54:26;15.65;;;6.57;;
30036;SDS011;36325;51.512;-0.382;2022-09-21T00:56:58;11.63;;;6.80;;
30036;SDS011;36325;51.512;-0.382;2022-09-21T00:59:31;16.92;;;6.90;;
30036;SDS011;36325;51.512;-0.382;2022-09-21T01:02:04;13.18;;;6.55;;
30036;SDS011;36325;51.512;-0.382;2022-09-21T01:04:31;14.93;;;6.35;;
30036;SDS011;36325;51.512;-0.382;2022-09-21T01:07:00;15.85;;;6.10;;
30036;SDS011;36325;51.512;-0.382;2022-09-21T01:09:31;13.25;;;7.28;;
30036;SDS011;36325;51.512;-0.382;2022-09-21T01:25:28;11.82;;;6.18;;
30036;SDS011;36325;51.512;-0.382;2022-09-21T01:28:27;14.38;;;5.95;;
30036;SDS011;36325;51.512;-0.382;2022-09-21T01:30:57;10.52;;;6.28;;
30036;SDS011;36325;51.512;-0.382;2022-09-21T01:33:33;14.63;;;6.22;;
30036;SDS011;36325;51.512;-0.382;2022-09-21T01:36:08;10.43;;;5.95;;
30036;SDS011;36325;51.512;-0.382;2022-09-21T01:38:44;13.50;;;5.28;;
30036;SDS011;36325;51.512;-0.382;2022-09-21T01:41:17;13.32;;;6.35;;
30036;SDS011;36325;51.512;-0.382;2022-09-21T01:43:49;19.17;;;5.57;;
30036;SDS011;36325;51.512;-0.382;2022-09-21T01:46:21;17.90;;;6.57;;
30036;SDS011;36325;51.512;-0.382;2022-09-21T01:48:55;10.77;;;6.00;;
30036;SDS011;36325;51.512;-0.382;2022-09-21T01:51:26;13.57;;;6.20;;
30036;SDS011;36325;51.512;-0.382;2022-09-21T01:53:55;12.35;;;5.82;;
30036;SDS011;36325;51.512;-0.382;2022-09-21T01:56:32;11.90;;;6.28;;
30036;SDS011;36325;51.512;-0.382;2022-09-21T02:01:35;10.82;;;5.55;;
30036;SDS011;36325;51.512;-0.382;2022-09-21T02:04:12;14.93;;;5.95;;
30036;SDS011;36325;51.512;-0.382;2022-09-21T02:06:40;9.80;;;5.55;;
30036;SDS011;36325;51.512;-0.382;2022-09-21T02:09:10;14.90;;;6.63;;
30036;SDS011;36325;51.512;-0.382;2022-09-21T02:11:38;17.65;;;6.15;;
30036;SDS011;36325;51.512;-0.382;2022-09-21T02:14:11;14.80;;;5.65;;
30036;SDS011;36325;51.512;-0.382;2022-09-21T02:16:44;11.23;;;5.63;;
30036;SDS011;36325;51.512;-0.382;2022-09-21T02:19:40;14.15;;;6.45;;
30036;SDS011;36325;51.512;-0.382;2022-09-21T02:25:19;12.80;;;6.47;;
30036;SDS011;36325;51.512;-0.382;2022-09-21T02:27:55;11.48;;;6.25;;
30036;SDS011;36325;51.512;-0.382;2022-09-21T02:30:30;11.30;;;6.05;;
30036;SDS011;36325;51.512;-0.382;2022-09-21T02:33:04;13.70;;;5.72;;
30036;SDS011;36325;51.512;-0.382;2022-09-21T02:43:39;11.02;;;6.32;;
30036;SDS011;36325;51.512;-0.382;2022-09-21T02:46:15;20.10;;;6.78;;
30036;SDS011;36325;51.512;-0.382;2022-09-21T02:48:48;19.45;;;7.40;;
30036;SDS011;36325;51.512;-0.382;2022-09-21T02:51:19;25.30;;;10.23;;
30036;SDS011;36325;51.512;-0.382;2022-09-21T02:53:57;21.35;;;10.63;;
30036;SDS011;36325;51.512;-0.382;2022-09-21T02:56:28;24.35;;;10.10;;
30036;SDS011;36325;51.512;-0.382;2022-09-21T02:58:57;17.13;;;9.40;;
30036;SDS011;36325;51.512;-0.382;2022-09-21T03:01:30;22.98;;;9.77;;
30036;SDS011;36325;51.512;-0.382;2022-09-21T03:03:58;15.93;;;9.40;;
30036;SDS011;36325;51.512;-0.382;2022-09-21T03:06:26;17.33;;;8.50;;
30036;SDS011;36325;51.512;-0.382;2022-09-21T03:08:53;18.25;;;7.90;;
30036;SDS011;36325;51.512;-0.382;2022-09-21T03:11:20;15.60;;;8.18;;
30036;SDS011;36325;51.512;-0.382;2022-09-21T03:13:48;15.70;;;8.05;;
30036;SDS011;36325;51.512;-0.382;2022-09-21T03:16:15;20.42;;;8.98;;
30036;SDS011;36325;51.512;-0.382;2022-09-21T03:18:43;17.15;;;7.13;;
30036;SDS011;36325;51.512;-0.382;2022-09-21T03:21:10;18.20;;;7.72;;
30036;SDS011;36325;51.512;-0.382;2022-09-21T03:23:38;18.27;;;7.25;;
30036;SDS011;36325;51.512;-0.382;2022-09-21T03:26:06;13.63;;;7.20;;
30036;SDS011;36325;51.512;-0.382;2022-09-21T03:28:34;13.85;;;7.13;;
30036;SDS011;36325;51.512;-0.382;2022-09-21T03:31:01;16.05;;;7.65;;
30036;SDS011;36325;51.512;-0.382;2022-09-21T03:33:28;14.60;;;6.93;;
30036;SDS011;36325;51.512;-0.382;2022-09-21T03:35:56;13.13;;;6.05;;
30036;SDS011;36325;51.512;-0.382;2022-09-21T03:38:23;16.55;;;6.53;;
30036;SDS011;36325;51.512;-0.382;2022-09-21T03:40:52;22.52;;;6.78;;
30036;SDS011;36325;51.512;-0.382;2022-09-21T03:43:23;16.77;;;7.07;;
30036;SDS011;36325;51.512;-0.382;2022-09-21T03:45:51;13.98;;;7.07;;
30036;SDS011;36325;51.512;-0.382;2022-09-21T03:48:19;18.30;;;6.45;;
30036;SDS011;36325;51.512;-0.382;2022-09-21T03:50:47;16.13;;;6.28;;
30036;SDS011;36325;51.512;-0.382;2022-09-21T03:53:14;15.02;;;6.28;;
30036;SDS011;36325;51.512;-0.382;2022-09-21T03:55:41;11.68;;;6.88;;
30036;SDS011;36325;51.512;-0.382;2022-09-21T03:58:09;14.27;;;6.30;;
30036;SDS011;36325;51.512;-0.382;2022-09-21T04:00:36;16.92;;;6.65;;
30036;SDS011;36325;51.512;-0.382;2022-09-21T04:03:04;14.23;;;6.88;;
30036;SDS011;36325;51.512;-0.382;2022-09-21T04:05:32;18.60;;;7.65;;
30036;SDS011;36325;51.512;-0.382;2022-09-21T04:08:00;18.38;;;8.18;;
30036;SDS011;36325;51.512;-0.382;2022-09-21T04:10:28;16.77;;;7.03;;
30036;SDS011;36325;51.512;-0.382;2022-09-21T04:12:59;17.55;;;7.50;;
30036;SDS011;36325;51.512;-0.382;2022-09-21T04:15:28;10.75;;;6.78;;
30036;SDS011;36325;51.512;-0.382;2022-09-21T04:17:56;15.23;;;7.35;;
30036;SDS011;36325;51.512;-0.382;2022-09-21T04:20:24;10.80;;;6.85;;
30036;SDS011;36325;51.512;-0.382;2022-09-21T04:22:52;18.67;;;6.90;;
30036;SDS011;36325;51.512;-0.382;2022-09-21T04:25:19;13.20;;;6.63;;
30036;SDS011;36325;51.512;-0.382;2022-09-21T04:27:46;12.98;;;7.05;;
30036;SDS011;36325;51.512;-0.382;2022-09-21T04:30:14;13.95;;;7.22;;
30036;SDS011;36325;51.512;-0.382;2022-09-21T04:32:42;16.45;;;7.07;;
30036;SDS011;36325;51.512;-0.382;2022-09-21T04:35:10;16.30;;;7.45;;
30036;SDS011;36325;51.512;-0.382;2022-09-21T04:37:37;13.77;;;7.25;;
30036;SDS011;36325;51.512;-0.382;2022-09-21T04:40:05;11.02;;;6.90;;
30036;SDS011;36325;51.512;-0.382;2022-09-21T04:42:33;13.63;;;6.72;;
30036;SDS011;36325;51.512;-0.382;2022-09-21T04:45:00;21.63;;;9.00;;
30036;SDS011;36325;51.512;-0.382;2022-09-21T04:47:29;14.05;;;7.60;;
30036;SDS011;36325;51.512;-0.382;2022-09-21T04:49:56;14.73;;;7.32;;
30036;SDS011;36325;51.512;-0.382;2022-09-21T04:52:24;15.55;;;7.57;;
30036;SDS011;36325;51.512;-0.382;2022-09-21T04:54:51;15.88;;;7.30;;
30036;SDS011;36325;51.512;-0.382;2022-09-21T04:57:18;16.75;;;7.35;;
30036;SDS011;36325;51.512;-0.382;2022-09-21T04:59:46;20.27;;;7.47;;
30036;SDS011;36325;51.512;-0.382;2022-09-21T05:02:13;15.52;;;6.85;;
30036;SDS011;36325;51.512;-0.382;2022-09-21T05:04:40;12.57;;;6.88;;
30036;SDS011;36325;51.512;-0.382;2022-09-21T05:07:07;14.50;;;6.70;;
30036;SDS011;36325;51.512;-0.382;2022-09-21T05:09:35;19.25;;;6.85;;
30036;SDS011;36325;51.512;-0.382;2022-09-21T05:12:22;10.35;;;6.25;;
30036;SDS011;36325;51.512;-0.382;2022-09-21T05:14:49;12.07;;;6.90;;
30036;SDS011;36325;51.512;-0.382;2022-09-21T05:17:17;13.05;;;6.57;;
30036;SDS011;36325;51.512;-0.382;2022-09-21T05:19:48;10.35;;;6.00;;
30036;SDS011;36325;51.512;-0.382;2022-09-21T05:22:16;14.70;;;6.50;;
30036;SDS011;36325;51.512;-0.382;2022-09-21T05:24:43;17.60;;;5.80;;
30036;SDS011;36325;51.512;-0.382;2022-09-21T05:27:10;12.23;;;5.63;;
30036;SDS011;36325;51.512;-0.382;2022-09-21T05:29:39;10.80;;;5.43;;
30036;SDS011;36325;51.512;-0.382;2022-09-21T05:32:10;9.15;;;5.50;;
30036;SDS011;36325;51.512;-0.382;2022-09-21T05:38:14;12.13;;;5.93;;
30036;SDS011;36325;51.512;-0.382;2022-09-21T05:40:44;13.13;;;5.53;;
30036;SDS011;36325;51.512;-0.382;2022-09-21T05:43:16;11.52;;;5.80;;
30036;SDS011;36325;51.512;-0.382;2022-09-21T05:45:44;11.93;;;5.43;;
30036;SDS011;36325;51.512;-0.382;2022-09-21T05:48:17;12.40;;;6.13;;
30036;SDS011;36325;51.512;-0.382;2022-09-21T05:51:03;13.30;;;5.88;;
30036;SDS011;36325;51.512;-0.382;2022-09-21T06:02:18;14.50;;;6.07;;
30036;SDS011;36325;51.512;-0.382;2022-09-21T06:04:54;16.92;;;6.18;;
30036;SDS011;36325;51.512;-0.382;2022-09-21T06:07:23;14.18;;;6.70;;
30036;SDS011;36325;51.512;-0.382;2022-09-21T06:09:51;12.10;;;5.65;;
30036;SDS011;36325;51.512;-0.382;2022-09-21T06:12:18;15.80;;;6.45;;
30036;SDS011;36325;51.512;-0.382;2022-09-21T06:14:45;11.18;;;6.35;;
30036;SDS011;36325;51.512;-0.382;2022-09-21T06:17:12;13.88;;;7.00;;
30036;SDS011;36325;51.512;-0.382;2022-09-21T06:19:40;13.95;;;6.35;;
30036;SDS011;36325;51.512;-0.382;2022-09-21T06:22:07;14.13;;;6.55;;
30036;SDS011;36325;51.512;-0.382;2022-09-21T06:24:34;16.90;;;6.20;;
30036;SDS011;36325;51.512;-0.382;2022-09-21T06:27:02;13.35;;;6.15;;
30036;SDS011;36325;51.512;-0.382;2022-09-21T06:29:29;13.90;;;6.65;;
30036;SDS011;36325;51.512;-0.382;2022-09-21T06:31:57;15.68;;;6.07;;
30036;SDS011;36325;51.512;-0.382;2022-09-21T06:34:25;11.15;;;6.55;;
30036;SDS011;36325;51.512;-0.382;2022-09-21T06:36:52;10.13;;;5.90;;
30036;SDS011;36325;51.512;-0.382;2022-09-21T06:39:20;11.50;;;6.35;;
30036;SDS011;36325;51.512;-0.382;2022-09-21T06:41:47;12.35;;;6.60;;
30036;SDS011;36325;51.512;-0.382;2022-09-21T06:44:14;16.65;;;6.28;;
30036;SDS011;36325;51.512;-0.382;2022-09-21T06:46:41;16.08;;;8.93;;
30036;SDS011;36325;51.512;-0.382;2022-09-21T06:49:09;15.70;;;6.95;;
30036;SDS011;36325;51.512;-0.382;2022-09-21T06:51:36;13.10;;;6.03;;
30036;SDS011;36325;51.512;-0.382;2022-09-21T06:54:03;12.45;;;6.20;;
30036;SDS011;36325;51.512;-0.382;2022-09-21T06:56:31;13.73;;;6.57;;
30036;SDS011;36325;51.512;-0.382;2022-09-21T06:58:58;11.57;;;6.38;;
30036;SDS011;36325;51.512;-0.382;2022-09-21T07:01:25;11.48;;;5.97;;
30036;SDS011;36325;51.512;-0.382;2022-09-21T07:03:53;12.93;;;7.40;;
30036;SDS011;36325;51.512;-0.382;2022-09-21T07:06:20;16.67;;;7.00;;
30036;SDS011;36325;51.512;-0.382;2022-09-21T07:08:50;12.23;;;6.30;;
30036;SDS011;36325;51.512;-0.382;2022-09-21T07:11:39;14.25;;;6.63;;
30036;SDS011;36325;51.512;-0.382;2022-09-21T07:14:06;10.60;;;5.85;;
30036;SDS011;36325;51.512;-0.382;2022-09-21T07:16:34;13.63;;;6.85;;
30036;SDS011;36325;51.512;-0.382;2022-09-21T07:19:01;11.98;;;6.15;;
30036;SDS011;36325;51.512;-0.382;2022-09-21T07:21:36;21.15;;;8.15;;
30036;SDS011;36325;51.512;-0.382;2022-09-21T07:24:04;16.42;;;6.53;;
30036;SDS011;36325;51.512;-0.382;2022-09-21T07:26:37;27.58;;;7.55;;
30036;SDS011;36325;51.512;-0.382;2022-09-21T07:29:04;28.88;;;8.10;;
30036;SDS011;36325;51.512;-0.382;2022-09-21T07:31:32;14.43;;;6.78;;
30036;SDS011;36325;51.512;-0.382;2022-09-21T07:34:01;14.25;;;6.55;;
30036;SDS011;36325;51.512;-0.382;2022-09-21T07:36:29;16.63;;;8.23;;
30036;SDS011;36325;51.512;-0.382;2022-09-21T07:38:56;18.27;;;8.50;;
30036;SDS011;36325;51.512;-0.382;2022-09-21T07:41:23;27.75;;;6.57;;
30036;SDS011;36325;51.512;-0.382;2022-09-21T07:43:51;19.55;;;7.53;;
30036;SDS011;36325;51.512;-0.382;2022-09-21T07:46:18;46.85;;;9.02;;
30036;SDS011;36325;51.512;-0.382;2022-09-21T07:48:46;21.63;;;7.40;;
30036;SDS011;36325;51.512;-0.382;2022-09-21T07:51:13;22.95;;;7.88;;
30036;SDS011;36325;51.512;-0.382;2022-09-21T07:53:42;21.83;;;7.85;;
30036;SDS011;36325;51.512;-0.382;2022-09-21T07:56:15;25.50;;;7.88;;
30036;SDS011;36325;51.512;-0.382;2022-09-21T07:58:43;45.55;;;9.30;;
30036;SDS011;36325;51.512;-0.382;2022-09-21T08:01:29;19.70;;;7.18;;
30036;SDS011;36325;51.512;-0.382;2022-09-21T08:03:57;14.43;;;7.00;;
30036;SDS011;36325;51.512;-0.382;2022-09-21T08:06:26;19.63;;;7.82;;
30036;SDS011;36325;51.512;-0.382;2022-09-21T08:08:55;17.98;;;7.63;;
30036;SDS011;36325;51.512;-0.382;2022-09-21T08:11:23;18.58;;;8.38;;
30036;SDS011;36325;51.512;-0.382;2022-09-21T08:13:53;15.30;;;6.40;;
30036;SDS011;36325;51.512;-0.382;2022-09-21T08:16:23;17.67;;;7.82;;
30036;SDS011;36325;51.512;-0.382;2022-09-21T08:18:51;16.85;;;6.63;;
30036;SDS011;36325;51.512;-0.382;2022-09-21T08:21:18;17.08;;;7.43;;
30036;SDS011;36325;51.512;-0.382;2022-09-21T08:23:46;14.52;;;7.00;;
30036;SDS011;36325;51.512;-0.382;2022-09-21T08:26:16;13.23;;;7.65;;
30036;SDS011;36325;51.512;-0.382;2022-09-21T08:28:45;18.13;;;7.45;;
30036;SDS011;36325;51.512;-0.382;2022-09-21T08:31:19;14.82;;;7.30;;
30036;SDS011;36325;51.512;-0.382;2022-09-21T08:33:50;17.75;;;7.30;;
30036;SDS011;36325;51.512;-0.382;2022-09-21T08:36:18;16.50;;;7.47;;
30036;SDS011;36325;51.512;-0.382;2022-09-21T08:38:45;18.42;;;7.07;;
30036;SDS011;36325;51.512;-0.382;2022-09-21T08:41:17;14.68;;;6.60;;
30036;SDS011;36325;51.512;-0.382;2022-09-21T08:44:22;14.73;;;7.18;;
30036;SDS011;36325;51.512;-0.382;2022-09-21T08:47:03;20.38;;;7.82;;
30036;SDS011;36325;51.512;-0.382;2022-09-21T08:49:38;15.05;;;7.80;;
30036;SDS011;36325;51.512;-0.382;2022-09-21T08:52:10;14.30;;;7.25;;
30036;SDS011;36325;51.512;-0.382;2022-09-21T08:57:44;15.43;;;7.10;;
30036;SDS011;36325;51.512;-0.382;2022-09-21T09:03:09;13.55;;;6.72;;
30036;SDS011;36325;51.512;-0.382;2022-09-21T09:09:06;17.48;;;7.75;;
30036;SDS011;36325;51.512;-0.382;2022-09-21T09:23:21;18.35;;;7.35;;
30036;SDS011;36325;51.512;-0.382;2022-09-21T09:26:01;18.52;;;7.47;;
30036;SDS011;36325;51.512;-0.382;2022-09-21T09:31:22;18.73;;;7.28;;
30036;SDS011;36325;51.512;-0.382;2022-09-21T09:36:46;16.05;;;7.72;;
30036;SDS011;36325;51.512;-0.382;2022-09-21T09:39:24;18.65;;;7.18;;
30036;SDS011;36325;51.512;-0.382;2022-09-21T09:42:10;22.05;;;7.85;;
30036;SDS011;36325;51.512;-0.382;2022-09-21T09:50:14;15.95;;;6.65;;
30036;SDS011;36325;51.512;-0.382;2022-09-21T09:53:09;13.82;;;6.38;;
30036;SDS011;36325;51.512;-0.382;2022-09-21T09:55:49;15.70;;;6.70;;
30036;SDS011;36325;51.512;-0.382;2022-09-21T10:00:47;13.18;;;6.35;;
30036;SDS011;36325;51.512;-0.382;2022-09-21T10:03:23;11.80;;;6.03;;
30036;SDS011;36325;51.512;-0.382;2022-09-21T10:05:52;8.70;;;5.47;;
30036;SDS011;36325;51.512;-0.382;2022-09-21T10:11:02;10.77;;;6.10;;
30036;SDS011;36325;51.512;-0.382;2022-09-21T10:13:31;9.27;;;5.55;;
30036;SDS011;36325;51.512;-0.382;2022-09-21T10:16:01;9.20;;;5.55;;
30036;SDS011;36325;51.512;-0.382;2022-09-21T10:19:00;9.85;;;5.72;;
30036;SDS011;36325;51.512;-0.382;2022-09-21T10:21:34;17.77;;;6.30;;
30036;SDS011;36325;51.512;-0.382;2022-09-21T10:24:06;11.48;;;6.72;;
30036;SDS011;36325;51.512;-0.382;2022-09-21T10:29:30;9.38;;;5.70;;
30036;SDS011;36325;51.512;-0.382;2022-09-21T10:32:05;8.00;;;5.35;;
30036;SDS011;36325;51.512;-0.382;2022-09-21T10:37:47;9.73;;;5.97;;
30036;SDS011;36325;51.512;-0.382;2022-09-21T10:42:50;7.95;;;4.53;;
30036;SDS011;36325;51.512;-0.382;2022-09-21T10:45:26;11.75;;;4.82;;
30036;SDS011;36325;51.512;-0.382;2022-09-21T10:50:40;9.30;;;5.05;;
30036;SDS011;36325;51.512;-0.382;2022-09-21T10:55:36;10.82;;;5.35;;
30036;SDS011;36325;51.512;-0.382;2022-09-21T10:58:10;7.47;;;4.25;;
30036;SDS011;36325;51.512;-0.382;2022-09-21T11:00:40;9.95;;;5.15;;
30036;SDS011;36325;51.512;-0.382;2022-09-21T11:03:25;6.80;;;4.38;;
30036;SDS011;36325;51.512;-0.382;2022-09-21T11:06:28;9.05;;;4.18;;
30036;SDS011;36325;51.512;-0.382;2022-09-21T11:09:07;8.77;;;3.97;;
30036;SDS011;36325;51.512;-0.382;2022-09-21T11:14:44;9.85;;;4.75;;
30036;SDS011;36325;51.512;-0.382;2022-09-21T11:23:03;5.25;;;3.30;;
30036;SDS011;36325;51.512;-0.382;2022-09-21T11:25:41;9.07;;;4.25;;
30036;SDS011;36325;51.512;-0.382;2022-09-21T11:42:19;10.10;;;3.88;;
30036;SDS011;36325;51.512;-0.382;2022-09-21T11:54:24;4.40;;;2.92;;
30036;SDS011;36325;51.512;-0.382;2022-09-21T12:06:02;7.07;;;4.30;;
30036;SDS011;36325;51.512;-0.382;2022-09-21T12:16:37;5.97;;;3.03;;
30036;SDS011;36325;51.512;-0.382;2022-09-21T12:19:35;5.82;;;3.42;;
30036;SDS011;36325;51.512;-0.382;2022-09-21T12:22:15;6.32;;;3.55;;
30036;SDS011;36325;51.512;-0.382;2022-09-21T12:24:57;7.75;;;3.13;;
30036;SDS011;36325;51.512;-0.382;2022-09-21T12:27:43;6.80;;;2.78;;
30036;SDS011;36325;51.512;-0.382;2022-09-21T12:30:20;6.53;;;3.17;;
30036;SDS011;36325;51.512;-0.382;2022-09-21T12:33:03;7.43;;;3.15;;
30036;SDS011;36325;51.512;-0.382;2022-09-21T12:35:39;6.38;;;3.10;;
30036;SDS011;36325;51.512;-0.382;2022-09-21T12:38:28;6.88;;;3.30;;
30036;SDS011;36325;51.512;-0.382;2022-09-21T12:41:10;5.68;;;2.67;;
30036;SDS011;36325;51.512;-0.382;2022-09-21T12:43:49;3.58;;;2.75;;
30036;SDS011;36325;51.512;-0.382;2022-09-21T12:46:28;4.13;;;2.70;;
30036;SDS011;36325;51.512;-0.382;2022-09-21T12:49:25;6.13;;;2.65;;
30036;SDS011;36325;51.512;-0.382;2022-09-21T12:51:58;8.88;;;3.45;;
30036;SDS011;36325;51.512;-0.382;2022-09-21T12:54:38;4.18;;;2.00;;
30036;SDS011;36325;51.512;-0.382;2022-09-21T13:00:08;2.97;;;2.20;;
30036;SDS011;36325;51.512;-0.382;2022-09-21T13:02:41;3.88;;;2.72;;
30036;SDS011;36325;51.512;-0.382;2022-09-21T13:05:20;6.38;;;2.67;;
30036;SDS011;36325;51.512;-0.382;2022-09-21T13:13:06;5.78;;;2.50;;
30036;SDS011;36325;51.512;-0.382;2022-09-21T13:15:45;3.55;;;2.28;;
30036;SDS011;36325;51.512;-0.382;2022-09-21T13:18:18;6.15;;;2.25;;
30036;SDS011;36325;51.512;-0.382;2022-09-21T13:20:50;7.15;;;2.80;;
30036;SDS011;36325;51.512;-0.382;2022-09-21T13:23:21;6.30;;;3.13;;
30036;SDS011;36325;51.512;-0.382;2022-09-21T13:25:59;7.32;;;3.67;;
30036;SDS011;36325;51.512;-0.382;2022-09-21T13:47:35;5.78;;;3.28;;
30036;SDS011;36325;51.512;-0.382;2022-09-21T13:50:17;4.00;;;2.90;;
30036;SDS011;36325;51.512;-0.382;2022-09-21T13:53:01;5.50;;;3.08;;
30036;SDS011;36325;51.512;-0.382;2022-09-21T13:55:36;7.55;;;3.22;;
30036;SDS011;36325;51.512;-0.382;2022-09-21T13:58:19;6.95;;;3.10;;
30036;SDS011;36325;51.512;-0.382;2022-09-21T14:00:51;4.72;;;2.78;;
30036;SDS011;36325;51.512;-0.382;2022-09-21T14:07:04;4.82;;;2.70;;
30036;SDS011;36325;51.512;-0.382;2022-09-21T14:12:08;5.78;;;2.72;;
30036;SDS011;36325;51.512;-0.382;2022-09-21T14:15:06;4.57;;;3.10;;
30036;SDS011;36325;51.512;-0.382;2022-09-21T14:18:07;4.38;;;3.00;;
30036;SDS011;36325;51.512;-0.382;2022-09-21T14:20:36;15.43;;;3.03;;
30036;SDS011;36325;51.512;-0.382;2022-09-21T14:24:06;3.88;;;2.70;;
30036;SDS011;36325;51.512;-0.382;2022-09-21T14:25:55;6.55;;;3.03;;
30036;SDS011;36325;51.512;-0.382;2022-09-21T14:28:47;5.30;;;2.88;;
30036;SDS011;36325;51.512;-0.382;2022-09-21T14:31:17;4.68;;;2.47;;
30036;SDS011;36325;51.512;-0.382;2022-09-21T14:33:49;5.75;;;2.53;;
30036;SDS011;36325;51.512;-0.382;2022-09-21T14:36:42;5.63;;;2.67;;
30036;SDS011;36325;51.512;-0.382;2022-09-21T14:39:28;10.90;;;2.70;;
30036;SDS011;36325;51.512;-0.382;2022-09-21T14:41:59;4.28;;;2.83;;
30036;SDS011;36325;51.512;-0.382;2022-09-21T14:44:35;6.20;;;2.55;;
30036;SDS011;36325;51.512;-0.382;2022-09-21T14:47:18;4.03;;;2.55;;
30036;SDS011;36325;51.512;-0.382;2022-09-21T14:50:24;3.47;;;2.50;;
30036;SDS011;36325;51.512;-0.382;2022-09-21T15:10:42;5.45;;;2.60;;
30036;SDS011;36325;51.512;-0.382;2022-09-21T15:21:51;3.38;;;2.55;;
30036;SDS011;36325;51.512;-0.382;2022-09-21T15:24:30;5.22;;;3.10;;
30036;SDS011;36325;51.512;-0.382;2022-09-21T15:27:08;10.00;;;3.08;;
30036;SDS011;36325;51.512;-0.382;2022-09-21T15:29:47;4.50;;;2.95;;
30036;SDS011;36325;51.512;-0.382;2022-09-21T15:35:05;7.03;;;2.65;;
30036;SDS011;36325;51.512;-0.382;2022-09-21T15:37:42;3.90;;;2.53;;
30036;SDS011;36325;51.512;-0.382;2022-09-21T15:40:18;4.13;;;2.80;;
30036;SDS011;36325;51.512;-0.382;2022-09-21T15:45:27;6.20;;;2.70;;
30036;SDS011;36325;51.512;-0.382;2022-09-21T15:47:59;4.88;;;2.78;;
30036;SDS011;36325;51.512;-0.382;2022-09-21T15:50:28;7.60;;;2.85;;
30036;SDS011;36325;51.512;-0.382;2022-09-21T15:53:00;5.72;;;2.70;;
30036;SDS011;36325;51.512;-0.382;2022-09-21T15:55:31;10.93;;;3.22;;
30036;SDS011;36325;51.512;-0.382;2022-09-21T15:57:59;4.53;;;2.63;;
30036;SDS011;36325;51.512;-0.382;2022-09-21T16:00:31;9.13;;;2.75;;
30036;SDS011;36325;51.512;-0.382;2022-09-21T16:03:15;5.43;;;2.47;;
30036;SDS011;36325;51.512;-0.382;2022-09-21T16:05:47;5.18;;;2.60;;
30036;SDS011;36325;51.512;-0.382;2022-09-21T16:08:27;4.57;;;2.40;;
30036;SDS011;36325;51.512;-0.382;2022-09-21T16:11:13;5.15;;;2.60;;
30036;SDS011;36325;51.512;-0.382;2022-09-21T16:14:11;4.70;;;2.63;;
30036;SDS011;36325;51.512;-0.382;2022-09-21T16:24:58;6.47;;;3.42;;
30036;SDS011;36325;51.512;-0.382;2022-09-21T16:27:29;9.55;;;3.22;;
30036;SDS011;36325;51.512;-0.382;2022-09-21T16:29:58;6.55;;;3.40;;
30036;SDS011;36325;51.512;-0.382;2022-09-21T16:32:27;5.70;;;2.72;;
30036;SDS011;36325;51.512;-0.382;2022-09-21T16:37:52;6.82;;;2.70;;
30036;SDS011;36325;51.512;-0.382;2022-09-21T16:42:53;4.70;;;3.00;;
30036;SDS011;36325;51.512;-0.382;2022-09-21T16:45:29;7.57;;;2.88;;
30036;SDS011;36325;51.512;-0.382;2022-09-21T16:47:58;5.50;;;2.53;;
30036;SDS011;36325;51.512;-0.382;2022-09-21T16:53:28;10.07;;;3.70;;
30036;SDS011;36325;51.512;-0.382;2022-09-21T16:55:56;7.05;;;3.20;;
30036;SDS011;36325;51.512;-0.382;2022-09-21T16:58:26;8.50;;;3.22;;
30036;SDS011;36325;51.512;-0.382;2022-09-21T17:00:53;6.03;;;2.78;;
30036;SDS011;36325;51.512;-0.382;2022-09-21T17:03:21;5.55;;;3.35;;
30036;SDS011;36325;51.512;-0.382;2022-09-21T17:05:49;7.47;;;3.63;;
30036;SDS011;36325;51.512;-0.382;2022-09-21T17:08:16;8.27;;;2.97;;
30036;SDS011;36325;51.512;-0.382;2022-09-21T17:10:43;7.65;;;2.78;;
30036;SDS011;36325;51.512;-0.382;2022-09-21T17:13:12;5.38;;;2.75;;
30036;SDS011;36325;51.512;-0.382;2022-09-21T17:15:42;4.78;;;2.80;;
30036;SDS011;36325;51.512;-0.382;2022-09-21T17:18:12;4.05;;;2.65;;
30036;SDS011;36325;51.512;-0.382;2022-09-21T17:20:41;4.95;;;2.83;;
30036;SDS011;36325;51.512;-0.382;2022-09-21T17:23:10;4.10;;;2.10;;
30036;SDS011;36325;51.512;-0.382;2022-09-21T17:25:37;7.75;;;3.00;;
30036;SDS011;36325;51.512;-0.382;2022-09-21T17:28:11;3.70;;;2.13;;
30036;SDS011;36325;51.512;-0.382;2022-09-21T17:30:54;5.47;;;2.33;;
30036;SDS011;36325;51.512;-0.382;2022-09-21T17:33:21;4.38;;;2.40;;
30036;SDS011;36325;51.512;-0.382;2022-09-21T17:35:50;4.90;;;2.55;;
30036;SDS011;36325;51.512;-0.382;2022-09-21T17:38:18;5.40;;;2.53;;
30036;SDS011;36325;51.512;-0.382;2022-09-21T17:40:46;6.43;;;2.78;;
30036;SDS011;36325;51.512;-0.382;2022-09-21T17:43:29;8.90;;;2.88;;
30036;SDS011;36325;51.512;-0.382;2022-09-21T17:48:39;6.68;;;3.10;;
30036;SDS011;36325;51.512;-0.382;2022-09-21T17:51:07;14.32;;;2.80;;
30036;SDS011;36325;51.512;-0.382;2022-09-21T17:53:35;9.98;;;3.60;;
30036;SDS011;36325;51.512;-0.382;2022-09-21T17:59:05;5.82;;;3.22;;
30036;SDS011;36325;51.512;-0.382;2022-09-21T18:05:02;8.80;;;3.05;;
30036;SDS011;36325;51.512;-0.382;2022-09-21T18:07:41;10.27;;;3.45;;
30036;SDS011;36325;51.512;-0.382;2022-09-21T18:10:10;5.03;;;3.05;;
30036;SDS011;36325;51.512;-0.382;2022-09-21T18:21:48;10.30;;;3.58;;
30036;SDS011;36325;51.512;-0.382;2022-09-21T18:24:19;11.18;;;3.63;;
30036;SDS011;36325;51.512;-0.382;2022-09-21T18:26:57;7.68;;;3.25;;
30036;SDS011;36325;51.512;-0.382;2022-09-21T18:29:27;9.60;;;3.65;;
30036;SDS011;36325;51.512;-0.382;2022-09-21T18:41:12;5.40;;;3.22;;
30036;SDS011;36325;51.512;-0.382;2022-09-21T18:43:59;6.18;;;3.53;;
30036;SDS011;36325;51.512;-0.382;2022-09-21T18:52:38;6.97;;;3.58;;
30036;SDS011;36325;51.512;-0.382;2022-09-21T18:55:24;7.60;;;4.00;;
30036;SDS011;36325;51.512;-0.382;2022-09-21T18:57:54;8.38;;;3.75;;
30036;SDS011;36325;51.512;-0.382;2022-09-21T19:00:23;13.77;;;3.95;;
30036;SDS011;36325;51.512;-0.382;2022-09-21T19:03:04;11.95;;;3.95;;
30036;SDS011;36325;51.512;-0.382;2022-09-21T19:05:49;9.20;;;4.18;;
30036;SDS011;36325;51.512;-0.382;2022-09-21T19:14:22;8.45;;;3.38;;
30036;SDS011;36325;51.512;-0.382;2022-09-21T19:19:37;7.50;;;3.28;;
30036;SDS011;36325;51.512;-0.382;2022-09-21T19:27:57;8.07;;;3.67;;